createdAt,value
2019-03-13T00:02:29.891Z,13.00
2019-03-13T00:05:18.056Z,13.00
2019-03-13T00:08:06.337Z,13.00
2019-03-13T00:10:54.858Z,13.00
2019-03-13T00:13:42.768Z,13.00
2019-03-13T00:16:30.757Z,13.00
2019-03-13T00:19:18.696Z,12.90
2019-03-13T00:22:07.079Z,12.90
2019-03-13T00:24:56.370Z,13.00
2019-03-13T00:27:25.759Z,13.00
2019-03-13T00:29:54.399Z,13.00
2019-03-13T00:32:42.382Z,13.00
2019-03-13T00:35:30.309Z,13.00
2019-03-13T00:38:19.137Z,13.00
2019-03-13T00:41:07.437Z,13.00
2019-03-13T00:43:55.805Z,12.90
2019-03-13T00:46:24.600Z,12.90
2019-03-13T00:49:13.052Z,12.90
2019-03-13T00:51:54.186Z,12.90
2019-03-13T00:54:36.991Z,12.90
2019-03-13T00:57:17.740Z,12.90
2019-03-13T00:59:58.220Z,12.90
2019-03-13T01:05:25.653Z,12.90
2019-03-13T01:08:13.572Z,12.90
2019-03-13T01:10:42.381Z,12.90
2019-03-13T01:13:30.580Z,12.80
2019-03-13T01:16:19.278Z,12.80
2019-03-13T01:19:07.223Z,12.80
2019-03-13T01:21:55.332Z,12.80
2019-03-13T01:24:43.332Z,12.80
2019-03-13T01:27:31.314Z,12.80
2019-03-13T01:30:19.444Z,12.80
2019-03-13T01:33:10.801Z,12.80
2019-03-13T01:35:59.074Z,12.80
2019-03-13T01:38:47.203Z,12.80
2019-03-13T01:41:35.196Z,12.80
2019-03-13T01:44:23.524Z,12.70
2019-03-13T01:47:12.176Z,12.70
2019-03-13T01:49:41.264Z,12.70
2019-03-13T01:52:22.103Z,12.70
2019-03-13T01:55:02.976Z,12.60
2019-03-13T01:57:33.936Z,12.70
2019-03-13T02:00:21.895Z,12.70
2019-03-13T02:02:50.968Z,12.70
2019-03-13T02:05:38.996Z,12.70
2019-03-13T02:08:07.583Z,12.70
2019-03-13T02:10:55.853Z,12.70
2019-03-13T02:13:24.447Z,12.70
2019-03-13T02:16:15.621Z,12.70
2019-03-13T02:18:44.602Z,12.70
2019-03-13T02:21:32.643Z,12.70
2019-03-13T02:24:20.626Z,12.70
2019-03-13T02:27:23.086Z,12.70
2019-03-13T02:29:58.227Z,12.60
2019-03-13T02:35:34.112Z,12.60
2019-03-13T02:38:22.068Z,12.70
2019-03-13T02:41:10.244Z,12.70
2019-03-13T02:43:38.842Z,12.70
2019-03-13T02:46:07.765Z,12.70
2019-03-13T02:48:36.352Z,12.70
2019-03-13T02:51:17.482Z,12.70
2019-03-13T02:53:58.285Z,12.70
2019-03-13T02:56:27.139Z,12.70
2019-03-13T02:58:56.024Z,12.70
2019-03-13T03:01:43.923Z,12.70
2019-03-13T03:04:32.571Z,12.70
2019-03-13T03:07:01.345Z,12.70
2019-03-13T03:09:30.383Z,12.60
2019-03-13T03:12:18.444Z,12.70
2019-03-13T03:15:08.408Z,12.70
2019-03-13T03:17:56.498Z,12.60
2019-03-13T03:20:44.484Z,12.60
2019-03-13T03:23:32.548Z,12.60
2019-03-13T03:26:20.482Z,12.60
2019-03-13T03:28:49.200Z,12.60
2019-03-13T03:31:17.861Z,12.70
2019-03-13T03:34:05.799Z,12.60
2019-03-13T03:36:53.799Z,12.60
2019-03-13T03:39:22.998Z,12.70
2019-03-13T03:41:51.658Z,12.70
2019-03-13T03:49:55.733Z,12.80
2019-03-13T03:52:24.586Z,12.70
2019-03-13T03:55:12.858Z,12.60
2019-03-13T03:58:00.816Z,12.60
2019-03-13T04:00:48.917Z,12.70
2019-03-13T04:03:37.349Z,12.60
2019-03-13T04:06:06.125Z,12.60
2019-03-13T04:08:54.015Z,12.60
2019-03-13T04:11:41.944Z,12.60
2019-03-13T04:14:29.889Z,12.60
2019-03-13T04:17:18.282Z,12.60
2019-03-13T04:20:06.322Z,12.60
2019-03-13T04:22:34.935Z,12.60
2019-03-13T04:25:42.154Z,12.60
2019-03-13T04:28:30.226Z,12.60
2019-03-13T04:31:18.627Z,12.60
2019-03-13T04:33:47.477Z,12.60
2019-03-13T04:36:35.403Z,12.60
2019-03-13T04:39:23.349Z,12.70
2019-03-13T04:41:53.408Z,12.60
2019-03-13T04:44:22.263Z,12.60
2019-03-13T04:46:52.396Z,12.60
2019-03-13T04:49:20.988Z,12.60
2019-03-13T04:51:49.819Z,12.50
2019-03-13T04:54:18.950Z,12.60
2019-03-13T04:57:06.925Z,12.60
2019-03-13T04:59:35.767Z,12.60
2019-03-13T05:02:04.404Z,12.60
2019-03-13T05:04:33.216Z,12.60
2019-03-13T05:07:21.223Z,12.60
2019-03-13T05:10:09.472Z,12.70
2019-03-13T05:12:38.159Z,12.60
2019-03-13T05:15:06.723Z,12.60
2019-03-13T05:17:54.727Z,12.60
2019-03-13T05:20:23.511Z,12.60
2019-03-13T05:22:52.210Z,12.60
2019-03-13T05:25:40.164Z,12.60
2019-03-13T05:28:08.980Z,12.60
2019-03-13T05:30:37.831Z,12.60
2019-03-13T05:33:06.443Z,12.60
2019-03-13T05:35:54.636Z,12.60
2019-03-13T05:38:42.618Z,12.60
2019-03-13T05:41:11.456Z,12.60
2019-03-13T05:43:59.404Z,12.70
2019-03-13T05:46:28.180Z,12.70
2019-03-13T05:48:57.110Z,12.60
2019-03-13T05:51:25.703Z,12.50
2019-03-13T05:53:54.290Z,12.60
2019-03-13T05:56:22.891Z,12.60
2019-03-13T05:58:51.540Z,12.60
2019-03-13T06:01:20.406Z,12.60
2019-03-13T06:04:08.420Z,12.60
2019-03-13T06:06:56.415Z,12.60
2019-03-13T06:09:25.744Z,12.70
2019-03-13T06:11:54.689Z,12.60
2019-03-13T06:14:42.635Z,12.60
2019-03-13T06:17:14.156Z,12.60
2019-03-13T06:19:47.936Z,12.60
2019-03-13T06:22:16.755Z,12.60
2019-03-13T06:24:45.319Z,12.60
2019-03-13T06:30:11.399Z,12.60
2019-03-13T06:32:59.331Z,12.60
2019-03-13T06:35:28.171Z,12.60
2019-03-13T06:37:56.784Z,12.70
2019-03-13T06:40:25.359Z,12.70
2019-03-13T06:42:54.189Z,12.70
2019-03-13T06:45:42.112Z,12.70
2019-03-13T06:48:10.708Z,12.70
2019-03-13T06:50:39.314Z,12.80
2019-03-13T06:53:07.898Z,12.80
2019-03-13T06:55:36.506Z,12.80
2019-03-13T06:58:33.749Z,12.80
2019-03-13T07:01:19.523Z,12.90
2019-03-13T07:04:07.548Z,13.00
2019-03-13T07:06:55.514Z,12.90
2019-03-13T07:09:51.721Z,12.90
2019-03-13T07:12:39.412Z,12.90
2019-03-13T07:15:46.456Z,13.10
2019-03-13T07:18:34.118Z,13.10
2019-03-13T07:21:56.075Z,13.10
2019-03-13T07:24:46.596Z,13.10
2019-03-13T07:27:34.539Z,13.10
2019-03-13T07:30:14.879Z,13.10
2019-03-13T07:32:49.347Z,13.20
2019-03-13T07:35:37.016Z,13.20
2019-03-13T07:38:44.041Z,13.10
2019-03-13T07:41:18.915Z,13.10
2019-03-13T07:44:06.842Z,13.10
2019-03-13T07:47:09.162Z,13.10
2019-03-13T07:50:22.050Z,13.20
2019-03-13T07:53:29.047Z,13.20
2019-03-13T07:56:17.012Z,13.10
2019-03-13T07:58:56.281Z,13.10
2019-03-13T08:01:46.911Z,13.20
2019-03-13T08:04:37.551Z,13.20
2019-03-13T08:07:44.625Z,13.20
2019-03-13T08:10:34.222Z,13.20
2019-03-13T08:13:41.261Z,13.20
2019-03-13T08:16:48.247Z,13.20
2019-03-13T08:19:36.842Z,13.20
2019-03-13T08:22:24.588Z,13.30
2019-03-13T08:25:12.244Z,13.30
2019-03-13T08:28:00.186Z,13.30
2019-03-13T08:30:39.440Z,13.40
2019-03-13T08:33:27.408Z,13.40
2019-03-13T08:36:05.620Z,13.40
2019-03-13T08:39:12.638Z,13.40
2019-03-13T08:42:00.296Z,13.40
2019-03-13T08:44:47.973Z,13.40
2019-03-13T08:47:25.368Z,13.40
2019-03-13T08:50:32.396Z,13.50
2019-03-13T08:53:20.079Z,13.40
2019-03-13T08:55:58.919Z,13.40
2019-03-13T08:59:05.925Z,13.50
2019-03-13T09:01:53.612Z,13.60
2019-03-13T09:04:57.039Z,13.60
2019-03-13T09:07:47.550Z,13.50
2019-03-13T09:10:23.940Z,13.50
2019-03-13T09:13:11.651Z,13.50
2019-03-13T09:16:19.914Z,13.50
2019-03-13T09:19:17.180Z,13.50
2019-03-13T09:22:05.120Z,13.50
2019-03-13T09:24:46.297Z,13.60
2019-03-13T09:27:53.323Z,13.60
2019-03-13T09:31:00.351Z,13.60
2019-03-13T09:33:35.947Z,13.70
2019-03-13T09:36:18.611Z,13.60
2019-03-13T09:39:06.305Z,13.70
2019-03-13T09:41:53.978Z,13.70
2019-03-13T09:44:48.800Z,13.80
2019-03-13T09:47:55.797Z,13.80
2019-03-13T09:51:02.780Z,13.90
2019-03-13T09:53:50.453Z,13.80
2019-03-13T09:56:38.152Z,13.80
2019-03-13T09:59:26.082Z,13.70
2019-03-13T10:02:33.153Z,13.80
2019-03-13T10:05:40.148Z,13.90
2019-03-13T10:08:47.133Z,13.90
2019-03-13T10:11:34.833Z,14.00
2019-03-13T10:14:22.743Z,14.30
2019-03-13T10:17:11.325Z,14.30
2019-03-13T10:20:18.786Z,14.20
2019-03-13T10:22:56.059Z,14.20
2019-03-13T10:25:50.841Z,14.20
2019-03-13T10:28:28.187Z,14.20
2019-03-13T10:31:35.158Z,14.50
2019-03-13T10:34:11.512Z,14.60
2019-03-13T10:36:50.653Z,14.60
2019-03-13T10:39:38.080Z,14.50
2019-03-13T10:42:25.993Z,14.50
2019-03-13T10:45:13.664Z,14.50
2019-03-13T10:48:06.481Z,14.50
2019-03-13T10:50:54.151Z,14.30
2019-03-13T10:54:01.175Z,14.20
2019-03-13T10:56:48.884Z,14.30
2019-03-13T10:59:29.320Z,14.30
2019-03-13T11:02:05.349Z,14.40
2019-03-13T11:04:53.012Z,14.30
2019-03-13T11:07:41.215Z,14.30
2019-03-13T11:10:48.303Z,14.20
2019-03-13T11:13:32.776Z,14.10
2019-03-13T11:16:39.788Z,14.10
2019-03-13T11:19:34.055Z,14.10
2019-03-13T11:22:41.068Z,14.10
2019-03-13T11:25:48.073Z,14.10
2019-03-13T11:28:55.076Z,14.10
2019-03-13T11:31:31.367Z,14.00
2019-03-13T11:34:05.271Z,14.00
2019-03-13T11:37:12.282Z,14.00
2019-03-13T11:40:19.556Z,14.20
2019-03-13T11:43:07.471Z,14.30
2019-03-13T11:46:14.466Z,14.40
2019-03-13T11:49:02.129Z,14.30
2019-03-13T11:51:49.950Z,14.20
2019-03-13T11:54:24.427Z,14.10
2019-03-13T11:57:24.799Z,14.00
2019-03-13T12:00:12.660Z,14.10
2019-03-13T12:03:00.346Z,14.20
2019-03-13T12:06:07.370Z,14.20
2019-03-13T12:12:19.612Z,14.20
2019-03-13T12:15:07.279Z,14.20
2019-03-13T12:18:09.204Z,14.20
2019-03-13T12:21:16.193Z,14.30
2019-03-13T12:24:23.298Z,14.20
2019-03-13T12:26:58.795Z,14.30
2019-03-13T12:29:56.164Z,14.30
2019-03-13T12:33:03.385Z,14.40
2019-03-13T12:35:51.079Z,14.20
2019-03-13T12:38:58.086Z,14.10
2019-03-13T12:42:05.090Z,14.20
2019-03-13T12:44:53.006Z,14.20
2019-03-13T12:47:40.924Z,14.20
2019-03-13T12:50:29.270Z,14.20
2019-03-13T12:53:36.259Z,14.30
2019-03-13T12:56:23.919Z,14.30
2019-03-13T12:59:11.679Z,14.20
2019-03-13T13:02:18.913Z,14.30
2019-03-13T13:05:06.580Z,14.30
2019-03-13T13:08:13.547Z,14.30
2019-03-13T13:10:59.959Z,14.50
2019-03-13T13:13:47.974Z,14.60
2019-03-13T13:16:35.693Z,14.50
2019-03-13T13:19:04.283Z,14.50
2019-03-13T13:21:52.214Z,14.40
2019-03-13T13:24:21.024Z,14.40
2019-03-13T13:26:50.351Z,14.50
2019-03-13T13:29:20.086Z,14.50
2019-03-13T13:32:08.098Z,14.50
2019-03-13T13:34:55.977Z,14.50
2019-03-13T13:37:44.131Z,14.40
2019-03-13T13:40:32.080Z,14.40
2019-03-13T13:43:20.126Z,14.40
2019-03-13T13:45:53.308Z,14.30
2019-03-13T13:48:21.932Z,14.20
2019-03-13T13:50:50.803Z,14.20
2019-03-13T13:53:38.736Z,14.10
2019-03-13T13:56:07.335Z,14.10
2019-03-13T13:58:48.399Z,14.00
2019-03-13T14:01:29.396Z,14.10
2019-03-13T14:03:58.001Z,16.30
2019-03-13T14:06:46.023Z,17.10
2019-03-13T14:09:34.180Z,16.80
2019-03-13T14:12:03.070Z,16.40
2019-03-13T14:14:50.963Z,16.10
2019-03-13T14:17:39.283Z,16.70
2019-03-13T14:20:08.051Z,17.90
2019-03-13T14:22:55.956Z,19.00
2019-03-13T14:25:24.557Z,19.40
2019-03-13T14:28:13.050Z,19.00
2019-03-13T14:31:00.994Z,18.10
2019-03-13T14:33:48.927Z,17.60
2019-03-13T14:36:36.853Z,17.60
2019-03-13T14:39:24.844Z,17.80
2019-03-13T14:41:53.447Z,17.50
2019-03-13T14:44:41.377Z,17.00
2019-03-13T14:47:29.277Z,16.80
2019-03-13T14:50:17.336Z,16.70
2019-03-13T14:52:45.917Z,16.50
2019-03-13T14:55:33.957Z,16.30
2019-03-13T14:58:14.344Z,16.40
2019-03-13T15:00:55.319Z,16.30
2019-03-13T15:03:36.520Z,16.10
2019-03-13T15:06:17.277Z,15.80
2019-03-13T15:08:58.067Z,15.50
2019-03-13T15:11:39.078Z,15.30
2019-03-13T15:14:07.682Z,15.20
2019-03-13T15:16:36.265Z,15.10
2019-03-13T15:19:04.899Z,15.00
2019-03-13T15:21:52.817Z,15.00
2019-03-13T15:24:41.003Z,15.00
2019-03-13T15:27:29.184Z,15.00
2019-03-13T15:30:18.211Z,15.00
2019-03-13T15:33:06.126Z,14.90
2019-03-13T15:35:54.287Z,14.90
2019-03-13T15:38:42.212Z,15.10
2019-03-13T15:41:30.163Z,15.20
2019-03-13T15:44:18.097Z,15.40
2019-03-13T15:47:06.047Z,15.50
2019-03-13T15:49:53.973Z,15.30
2019-03-13T15:52:22.677Z,13.60
2019-03-13T15:55:10.884Z,12.50
2019-03-13T15:57:39.775Z,12.40
2019-03-13T16:00:20.660Z,11.70
2019-03-13T16:03:01.684Z,11.60
2019-03-13T16:05:42.612Z,10.70
2019-03-13T16:08:11.708Z,11.30
2019-03-13T16:10:40.294Z,10.50
2019-03-13T16:13:08.897Z,9.50
2019-03-13T16:15:38.063Z,9.70
2019-03-13T16:18:06.619Z,10.20
2019-03-13T16:20:36.068Z,10.60
2019-03-13T16:23:05.346Z,9.70
2019-03-13T16:25:33.927Z,10.20
2019-03-13T16:28:22.110Z,10.40
2019-03-13T16:30:50.977Z,10.70
2019-03-13T16:33:39.147Z,10.60
2019-03-13T16:36:07.820Z,10.70
2019-03-13T16:38:55.848Z,10.70
2019-03-13T16:41:24.415Z,10.60
2019-03-13T16:44:12.667Z,10.50
2019-03-13T16:46:41.263Z,10.50
2019-03-13T16:49:29.308Z,10.60
2019-03-13T16:52:17.206Z,11.30
2019-03-13T16:54:46.169Z,12.00
2019-03-13T16:57:34.075Z,12.40
2019-03-13T17:00:02.917Z,12.60
2019-03-13T17:02:50.835Z,12.80
2019-03-13T17:05:19.540Z,12.90
2019-03-13T17:08:07.716Z,13.00
2019-03-13T17:10:55.695Z,13.10
2019-03-13T17:13:24.836Z,13.10
2019-03-13T17:16:12.886Z,13.10
2019-03-13T17:19:00.763Z,13.20
2019-03-13T17:21:29.367Z,13.30
2019-03-13T17:24:17.285Z,13.30
2019-03-13T17:26:45.999Z,13.20
2019-03-13T17:29:34.182Z,13.20
2019-03-13T17:32:02.775Z,13.30
2019-03-13T17:34:50.704Z,13.30
2019-03-13T17:37:38.631Z,13.30
2019-03-13T17:40:26.568Z,13.30
2019-03-13T17:43:14.468Z,13.40
2019-03-13T17:45:43.071Z,13.40
2019-03-13T17:48:30.984Z,13.30
2019-03-13T17:50:59.545Z,13.40
2019-03-13T17:53:28.140Z,13.40
2019-03-13T17:56:16.064Z,13.30
2019-03-13T17:59:04.087Z,13.40
2019-03-13T18:01:44.735Z,13.40
2019-03-13T18:04:25.731Z,13.40
2019-03-13T18:06:54.331Z,11.00
2019-03-13T18:09:42.269Z,9.40
2019-03-13T18:12:30.175Z,9.50
2019-03-13T18:15:18.114Z,10.70
2019-03-13T18:17:46.707Z,11.70
2019-03-13T18:20:34.643Z,12.20
2019-03-13T18:23:22.566Z,12.50
2019-03-13T18:25:51.204Z,12.70
2019-03-13T18:28:19.800Z,12.80
2019-03-13T18:30:48.386Z,12.90
2019-03-13T18:33:17.023Z,13.00
2019-03-13T18:36:05.224Z,13.10
2019-03-13T18:38:33.825Z,13.10
2019-03-13T18:41:02.843Z,13.10
2019-03-13T18:43:51.031Z,13.20
2019-03-13T18:46:38.956Z,13.10
2019-03-13T18:49:07.827Z,13.10
2019-03-13T18:51:55.752Z,13.10
2019-03-13T18:54:43.940Z,13.10
2019-03-13T18:57:31.874Z,13.10
2019-03-13T19:00:13.019Z,13.20
2019-03-13T19:02:41.592Z,13.30
2019-03-13T19:05:11.031Z,13.30
2019-03-13T19:07:39.664Z,13.20
2019-03-13T19:10:27.816Z,13.30
2019-03-13T19:13:15.816Z,13.20
2019-03-13T19:16:03.939Z,13.20
2019-03-13T19:18:51.874Z,13.20
2019-03-13T19:21:39.803Z,13.40
2019-03-13T19:24:27.824Z,13.50
2019-03-13T19:27:16.006Z,13.40
2019-03-13T19:30:04.416Z,13.30
2019-03-13T19:32:52.330Z,13.30
2019-03-13T19:35:40.291Z,13.40
2019-03-13T19:38:28.203Z,13.40
2019-03-13T19:41:16.792Z,13.30
2019-03-13T19:44:04.726Z,13.30
2019-03-13T19:46:33.707Z,13.40
2019-03-13T19:49:21.880Z,13.30
2019-03-13T19:51:50.557Z,13.30
2019-03-13T19:54:19.139Z,13.30
2019-03-13T19:57:07.045Z,13.30
2019-03-13T19:59:55.026Z,13.30
2019-03-13T20:02:36.620Z,13.30
2019-03-13T20:05:17.792Z,13.30
2019-03-13T20:07:59.156Z,13.30
2019-03-13T20:10:27.754Z,13.40
2019-03-13T20:12:56.595Z,13.40
2019-03-13T20:15:25.282Z,13.40
2019-03-13T20:18:13.196Z,13.40
2019-03-13T20:21:01.369Z,13.40
2019-03-13T20:23:49.539Z,13.30
2019-03-13T20:26:37.711Z,13.40
2019-03-13T20:29:25.651Z,13.30
2019-03-13T20:32:13.586Z,13.30
2019-03-13T20:35:01.524Z,13.30
2019-03-13T20:37:30.655Z,13.30
2019-03-13T20:40:19.027Z,13.30
2019-03-13T20:42:47.741Z,13.30
2019-03-13T20:48:06.304Z,13.30
2019-03-13T20:50:54.243Z,13.30
2019-03-13T20:53:23.287Z,13.40
2019-03-13T20:56:11.232Z,13.30
2019-03-13T20:58:40.112Z,13.30
2019-03-13T21:01:08.731Z,13.30
2019-03-13T21:03:37.327Z,13.30
2019-03-13T21:06:05.939Z,13.30
2019-03-13T21:08:54.443Z,13.40
2019-03-13T21:11:23.117Z,13.40
2019-03-13T21:14:11.261Z,13.40
2019-03-13T21:16:39.879Z,13.40
2019-03-13T21:19:28.067Z,13.40
2019-03-13T21:22:16.085Z,13.40
2019-03-13T21:24:44.927Z,13.30
2019-03-13T21:27:32.852Z,13.40
2019-03-13T21:30:21.452Z,13.40
2019-03-13T21:32:50.836Z,13.40
2019-03-13T21:35:19.655Z,13.40
2019-03-13T21:38:07.748Z,13.40
2019-03-13T21:40:36.692Z,13.40
2019-03-13T21:43:24.641Z,13.40
2019-03-13T21:45:53.203Z,13.40
2019-03-13T21:48:41.391Z,13.40
2019-03-13T21:51:29.309Z,13.40
2019-03-13T21:54:17.319Z,13.40
2019-03-13T21:56:46.208Z,13.40
2019-03-13T21:59:14.811Z,13.40
2019-03-13T22:01:55.188Z,13.30
2019-03-13T22:04:24.628Z,13.40
2019-03-13T22:07:12.838Z,13.40
2019-03-13T22:09:41.431Z,13.30
2019-03-13T22:12:29.457Z,13.30
2019-03-13T22:15:17.436Z,13.30
2019-03-13T22:18:05.407Z,13.30
2019-03-13T22:20:53.343Z,13.20
2019-03-13T22:23:22.749Z,13.30
2019-03-13T22:26:10.671Z,13.30
2019-03-13T22:28:58.768Z,13.30
2019-03-13T22:31:46.694Z,13.30
2019-03-13T22:34:15.762Z,13.30
2019-03-13T22:36:45.915Z,13.30
2019-03-13T22:39:34.406Z,13.30
2019-03-13T22:42:22.364Z,13.30
2019-03-13T22:44:51.052Z,13.30
2019-03-13T22:47:43.034Z,13.30
2019-03-13T22:50:28.938Z,13.30
2019-03-13T22:53:16.839Z,13.30
2019-03-13T22:56:04.777Z,13.40
2019-03-13T22:58:33.387Z,13.30
2019-03-13T23:01:16.289Z,13.30
2019-03-13T23:03:57.041Z,13.40
2019-03-13T23:06:25.689Z,13.40
2019-03-13T23:08:54.255Z,13.30
2019-03-13T23:11:42.213Z,13.30
2019-03-13T23:14:12.535Z,13.30
2019-03-13T23:17:00.795Z,13.30
2019-03-13T23:19:29.487Z,13.30
2019-03-13T23:21:58.087Z,13.30
2019-03-13T23:24:27.117Z,13.30
2019-03-13T23:27:15.103Z,13.30
2019-03-13T23:30:03.149Z,13.30
2019-03-13T23:32:51.067Z,13.30
2019-03-13T23:35:39.222Z,13.30
2019-03-13T23:38:07.951Z,13.30
2019-03-13T23:40:55.879Z,13.20
2019-03-13T23:43:43.912Z,13.20
2019-03-13T23:46:31.831Z,13.20
2019-03-13T23:49:00.515Z,13.20
2019-03-13T23:51:48.434Z,13.20
2019-03-13T23:54:36.387Z,13.20
2019-03-13T23:57:04.950Z,13.20
2019-03-13T23:59:33.764Z,13.20
